Time;durP1;ratioP1;P1;durP2;ratioP2;P2;SDS_P1;SDS_P2;PMS_P1;PMS_P2;Temp;Humidity;BMP_temperature;BMP_pressure;BME280_temperature;BME280_humidity;BME280_pressure;Samples;Min_cycle;Max_cycle;Signal;HPM_P1;HPM_P2
2023/06/14 00:01:40;0.00;0.00;0.62;0.00;0.00;0.62;2.20;2.00;;;31.50;17.00;;;;;;2251330;61;20414;-66
2023/06/14 00:04:25;0.00;0.00;0.62;0.00;0.00;0.62;2.10;1.90;;;31.40;16.90;;;;;;2251659;61;20370;-64
2023/06/14 00:07:13;0.00;0.00;0.62;0.00;0.00;0.62;2.73;2.40;;;31.40;16.90;;;;;;2252465;61;20362;-64
2023/06/14 00:09:58;0.00;0.00;0.62;0.00;0.00;0.62;3.40;2.80;;;31.40;16.90;;;;;;2251939;61;20413;-65
2023/06/14 00:12:42;0.00;0.00;0.62;0.00;0.00;0.62;2.30;2.10;;;31.40;16.90;;;;;;2251446;61;20382;-64
2023/06/14 00:15:28;0.00;0.00;0.62;0.00;0.00;0.62;2.97;2.30;;;31.40;17.00;;;;;;2252088;61;20362;-65
2023/06/14 00:18:13;0.00;0.00;0.62;0.00;0.00;0.62;3.60;2.40;;;31.40;17.00;;;;;;2251921;61;20362;-64
2023/06/14 00:20:58;0.00;0.00;0.62;0.00;0.00;0.62;2.50;2.30;;;31.40;17.00;;;;;;2251738;61;20488;-64
2023/06/14 00:23:44;0.00;0.00;0.62;0.00;0.00;0.62;2.53;2.30;;;31.40;17.00;;;;;;2251543;61;20363;-64
2023/06/14 00:26:29;0.00;0.00;0.62;0.00;0.00;0.62;2.80;2.40;;;31.40;17.00;;;;;;2252478;61;20437;-65
2023/06/14 00:29:14;0.00;0.00;0.62;0.00;0.00;0.62;2.70;2.40;;;31.40;17.00;;;;;;2254961;61;20900;-65
2023/06/14 00:31:59;0.00;0.00;0.62;0.00;0.00;0.62;2.60;2.10;;;31.40;17.00;;;;;;2250907;61;20828;-64
2023/06/14 00:34:45;0.00;0.00;0.62;0.00;0.00;0.62;2.73;2.27;;;31.40;17.00;;;;;;2251299;61;20375;-66
2023/06/14 00:37:29;0.00;0.00;0.62;0.00;0.00;0.62;3.30;2.50;;;31.30;17.00;;;;;;2251518;61;20410;-65
2023/06/14 00:40:16;0.00;0.00;0.62;0.00;0.00;0.62;2.70;2.37;;;31.30;17.00;;;;;;2251266;61;20394;-66
2023/06/14 00:43:01;0.00;0.00;0.62;0.00;0.00;0.62;2.37;2.07;;;31.30;17.00;;;;;;2253847;61;20510;-66
2023/06/14 00:45:46;0.00;0.00;0.62;0.00;0.00;0.62;2.70;2.20;;;31.30;17.10;;;;;;2255218;61;20601;-65
2023/06/14 00:48:32;0.00;0.00;0.62;0.00;0.00;0.62;2.27;2.00;;;31.30;17.00;;;;;;2251790;61;20824;-65
2023/06/14 00:51:18;0.00;0.00;0.62;0.00;0.00;0.62;2.57;2.37;;;31.30;17.10;;;;;;2255005;61;20398;-66
2023/06/14 00:54:03;0.00;0.00;0.62;0.00;0.00;0.62;2.73;2.27;;;31.30;17.00;;;;;;2255431;61;20387;-65
2023/06/14 00:56:49;0.00;0.00;0.62;0.00;0.00;0.62;2.40;2.10;;;31.30;17.10;;;;;;2255055;61;20901;-66
2023/06/14 00:59:38;0.00;0.00;0.62;0.00;0.00;0.62;2.50;2.30;;;31.30;17.10;;;;;;2255619;61;20367;-65
2023/06/14 01:02:24;0.00;0.00;0.62;0.00;0.00;0.62;2.53;2.17;;;31.30;17.10;;;;;;2329049;48;20537;-66
2023/06/14 01:05:10;0.00;0.00;0.62;0.00;0.00;0.62;2.73;2.17;;;31.30;17.10;;;;;;2259091;61;20369;-65
2023/06/14 01:08:20;0.00;0.00;0.62;0.00;0.00;0.62;2.80;2.10;;;31.30;17.10;;;;;;2259284;61;20365;-65
2023/06/14 01:11:13;0.00;0.00;0.62;0.00;0.00;0.62;2.30;2.10;;;31.30;17.10;;;;;;2258054;61;20394;-65
2023/06/14 01:14:01;0.00;0.00;0.62;0.00;0.00;0.62;2.30;1.93;;;31.30;17.20;;;;;;2251928;61;20472;-65
2023/06/14 01:16:47;0.00;0.00;0.62;0.00;0.00;0.62;2.50;2.10;;;31.30;17.10;;;;;;2255167;61;20453;-68
2023/06/14 01:19:34;0.00;0.00;0.62;0.00;0.00;0.62;2.40;2.00;;;31.20;17.10;;;;;;2251856;61;20374;-65
2023/06/14 01:22:19;0.00;0.00;0.62;0.00;0.00;0.62;2.20;2.00;;;31.20;17.10;;;;;;2254784;61;20375;-65
2023/06/14 01:25:07;0.00;0.00;0.62;0.00;0.00;0.62;2.70;2.33;;;31.20;17.20;;;;;;2251435;61;20363;-65
2023/06/14 01:27:58;0.00;0.00;0.62;0.00;0.00;0.62;2.40;2.20;;;31.20;17.20;;;;;;2254789;61;20371;-66
2023/06/14 01:30:47;0.00;0.00;0.62;0.00;0.00;0.62;3.60;2.03;;;31.20;17.20;;;;;;2255054;61;20438;-65
2023/06/14 01:33:36;0.00;0.00;0.62;0.00;0.00;0.62;2.80;2.37;;;31.20;17.20;;;;;;2250868;61;20367;-66
2023/06/14 01:36:22;0.00;0.00;0.62;0.00;0.00;0.62;2.63;2.03;;;31.20;17.20;;;;;;2251996;61;20410;-66
2023/06/14 01:39:08;0.00;0.00;0.62;0.00;0.00;0.62;1.73;1.50;;;31.20;17.20;;;;;;2254991;61;20386;-66
2023/06/14 01:41:54;0.00;0.00;0.62;0.00;0.00;0.62;2.30;2.00;;;31.20;17.20;;;;;;2254342;61;20379;-65
2023/06/14 01:44:41;0.00;0.00;0.62;0.00;0.00;0.62;2.20;1.90;;;31.20;17.30;;;;;;2255371;61;20963;-65
2023/06/14 01:47:27;0.00;0.00;0.62;0.00;0.00;0.62;2.30;2.10;;;31.20;17.30;;;;;;2254922;61;20374;-65
2023/06/14 01:50:12;0.00;0.00;0.62;0.00;0.00;0.62;2.37;2.10;;;31.20;17.40;;;;;;2251615;61;20483;-66
2023/06/14 01:52:57;0.00;0.00;0.62;0.00;0.00;0.62;2.43;2.20;;;31.20;17.40;;;;;;2254862;61;20377;-65
2023/06/14 01:55:43;0.00;0.00;0.62;0.00;0.00;0.62;2.67;2.10;;;31.10;17.40;;;;;;2254540;61;20391;-65
2023/06/14 01:58:30;0.00;0.00;0.62;0.00;0.00;0.62;2.37;2.00;;;31.10;17.40;;;;;;2252003;61;20370;-65
2023/06/14 02:01:16;0.00;0.00;0.62;0.00;0.00;0.62;2.20;2.00;;;31.10;17.40;;;;;;2251637;61;20984;-65
2023/06/14 02:04:03;0.00;0.00;0.62;0.00;0.00;0.62;2.60;2.13;;;31.10;17.40;;;;;;2254828;61;20411;-66
2023/06/14 02:06:48;0.00;0.00;0.62;0.00;0.00;0.62;2.40;2.10;;;31.10;17.40;;;;;;2254905;61;20409;-65
2023/06/14 02:09:33;0.00;0.00;0.62;0.00;0.00;0.62;1.90;1.70;;;31.10;17.40;;;;;;2251435;61;20359;-66
2023/06/14 02:12:18;0.00;0.00;0.62;0.00;0.00;0.62;2.00;1.67;;;31.10;17.40;;;;;;2254589;61;20394;-65
2023/06/14 02:15:05;0.00;0.00;0.62;0.00;0.00;0.62;3.27;2.40;;;31.10;17.40;;;;;;2251708;61;20370;-65
2023/06/14 02:17:50;0.00;0.00;0.62;0.00;0.00;0.62;2.33;2.10;;;31.10;17.40;;;;;;2254656;61;20375;-65
2023/06/14 02:20:35;0.00;0.00;0.62;0.00;0.00;0.62;2.13;1.60;;;31.10;17.40;;;;;;2251991;61;20362;-66
2023/06/14 02:23:20;0.00;0.00;0.62;0.00;0.00;0.62;2.90;2.23;;;31.10;17.40;;;;;;2251240;61;20394;-66
2023/06/14 02:26:05;0.00;0.00;0.62;0.00;0.00;0.62;2.43;1.70;;;31.10;17.40;;;;;;2254538;61;20409;-65
2023/06/14 02:28:52;0.00;0.00;0.62;0.00;0.00;0.62;2.30;2.10;;;31.10;17.40;;;;;;2251832;61;20363;-66
2023/06/14 02:31:38;0.00;0.00;0.62;0.00;0.00;0.62;2.37;1.97;;;31.10;17.90;;;;;;2251156;61;20387;-66
2023/06/14 02:34:23;0.00;0.00;0.62;0.00;0.00;0.62;2.63;2.07;;;31.10;17.40;;;;;;2254235;61;20390;-66
2023/06/14 02:37:08;0.00;0.00;0.62;0.00;0.00;0.62;2.40;1.93;;;31.10;17.40;;;;;;2251299;61;20439;-65
2023/06/14 02:39:52;0.00;0.00;0.62;0.00;0.00;0.62;2.37;2.03;;;31.00;17.30;;;;;;2251752;61;20362;-65
2023/06/14 02:42:37;0.00;0.00;0.62;0.00;0.00;0.62;2.10;1.80;;;31.00;17.30;;;;;;2254533;61;20383;-66
2023/06/14 02:45:22;0.00;0.00;0.62;0.00;0.00;0.62;2.73;2.20;;;31.00;17.30;;;;;;2250555;61;20362;-65
2023/06/14 02:48:08;0.00;0.00;0.62;0.00;0.00;0.62;2.03;1.83;;;31.00;17.30;;;;;;2251575;61;20422;-66
2023/06/14 02:50:53;0.00;0.00;0.62;0.00;0.00;0.62;2.63;2.23;;;31.00;17.30;;;;;;2250715;61;20458;-66
2023/06/14 02:53:38;0.00;0.00;0.62;0.00;0.00;0.62;2.93;2.10;;;31.00;17.30;;;;;;2250895;61;20414;-66
2023/06/14 02:56:23;0.00;0.00;0.62;0.00;0.00;0.62;2.77;1.77;;;31.00;17.30;;;;;;2251403;61;20584;-66
2023/06/14 02:59:09;0.00;0.00;0.62;0.00;0.00;0.62;2.37;1.90;;;31.00;17.30;;;;;;2251547;61;20350;-66
2023/06/14 03:01:55;0.00;0.00;0.62;0.00;0.00;0.62;2.07;1.47;;;31.00;17.30;;;;;;2251109;61;20410;-66
2023/06/14 03:04:43;0.00;0.00;0.62;0.00;0.00;0.62;2.13;1.93;;;31.00;17.30;;;;;;2254844;61;20766;-66
2023/06/14 03:07:32;0.00;0.00;0.62;0.00;0.00;0.62;2.30;2.03;;;31.00;17.30;;;;;;2251354;61;20545;-65
2023/06/14 03:10:18;0.00;0.00;0.62;0.00;0.00;0.62;2.60;2.00;;;31.00;17.30;;;;;;2251096;61;20848;-66
2023/06/14 03:13:04;0.00;0.00;0.62;0.00;0.00;0.62;2.13;1.80;;;31.00;17.30;;;;;;2251406;61;20429;-65
2023/06/14 03:15:50;0.00;0.00;0.62;0.00;0.00;0.62;2.97;2.13;;;31.00;17.30;;;;;;2250997;61;20498;-66
2023/06/14 03:18:36;0.00;0.00;0.62;0.00;0.00;0.62;2.20;1.90;;;31.00;17.30;;;;;;2251411;61;20422;-66
2023/06/14 03:21:25;0.00;0.00;0.62;0.00;0.00;0.62;2.40;1.90;;;30.90;17.30;;;;;;2251158;61;20434;-65
2023/06/14 03:24:12;0.00;0.00;0.62;0.00;0.00;0.62;2.07;1.87;;;30.90;17.30;;;;;;2251232;61;20905;-66
2023/06/14 03:26:57;0.00;0.00;0.62;0.00;0.00;0.62;1.97;1.60;;;30.90;17.30;;;;;;2251633;61;20774;-68
2023/06/14 03:29:43;0.00;0.00;0.62;0.00;0.00;0.62;2.37;2.03;;;30.90;17.30;;;;;;2251677;61;20374;-66
2023/06/14 03:32:33;0.00;0.00;0.62;0.00;0.00;0.62;3.03;2.13;;;30.90;17.30;;;;;;2250912;61;20421;-66
2023/06/14 03:35:18;0.00;0.00;0.62;0.00;0.00;0.62;1.90;1.70;;;30.90;17.30;;;;;;2251677;61;20379;-65
2023/06/14 03:38:07;0.00;0.00;0.62;0.00;0.00;0.62;2.30;1.87;;;30.90;17.30;;;;;;2251408;61;20443;-66
2023/06/14 03:40:52;0.00;0.00;0.62;0.00;0.00;0.62;2.17;1.90;;;30.90;17.30;;;;;;2251318;61;20390;-66
2023/06/14 03:43:36;0.00;0.00;0.62;0.00;0.00;0.62;3.40;1.97;;;30.90;17.80;;;;;;2251363;61;20421;-66
2023/06/14 03:46:22;0.00;0.00;0.62;0.00;0.00;0.62;2.90;1.83;;;30.90;17.30;;;;;;2251390;61;20418;-65
2023/06/14 03:49:07;0.00;0.00;0.62;0.00;0.00;0.62;2.90;2.07;;;30.90;17.30;;;;;;2250998;61;20340;-66
2023/06/14 03:51:52;0.00;0.00;0.62;0.00;0.00;0.62;2.20;1.73;;;30.90;17.30;;;;;;2251106;61;20395;-66
2023/06/14 03:54:40;0.00;0.00;0.62;0.00;0.00;0.62;2.20;1.87;;;30.90;17.30;;;;;;2251214;61;20441;-65
2023/06/14 03:57:26;0.00;0.00;0.62;0.00;0.00;0.62;2.40;2.03;;;30.90;17.30;;;;;;2251331;61;20385;-65
2023/06/14 04:00:15;0.00;0.00;0.62;0.00;0.00;0.62;2.37;1.80;;;30.90;17.30;;;;;;2251270;61;20390;-66
2023/06/14 04:03:00;0.00;0.00;0.62;0.00;0.00;0.62;2.00;1.80;;;30.90;17.30;;;;;;2254050;61;20359;-66
2023/06/14 04:05:49;0.00;0.00;0.62;0.00;0.00;0.62;2.23;2.00;;;30.90;17.30;;;;;;2254828;61;20363;-65
2023/06/14 04:08:34;0.00;0.00;0.62;0.00;0.00;0.62;2.37;1.97;;;30.90;17.30;;;;;;2251259;61;20858;-65
2023/06/14 04:11:21;0.00;0.00;0.62;0.00;0.00;0.62;2.00;1.80;;;30.90;17.30;;;;;;2251402;61;20467;-66
2023/06/14 04:14:06;0.00;0.00;0.62;0.00;0.00;0.62;1.93;1.73;;;30.80;17.30;;;;;;2254391;61;20413;-65
2023/06/14 04:16:50;0.00;0.00;0.62;0.00;0.00;0.62;2.17;1.60;;;30.90;17.40;;;;;;2254597;61;20398;-65
2023/06/14 04:19:37;0.00;0.00;0.62;0.00;0.00;0.62;2.23;1.97;;;30.80;17.30;;;;;;2251975;61;20426;-66
2023/06/14 04:22:22;0.00;0.00;0.62;0.00;0.00;0.62;3.00;2.10;;;30.90;17.40;;;;;;2251575;61;20381;-65
2023/06/14 04:25:08;0.00;0.00;0.62;0.00;0.00;0.62;1.87;1.73;;;30.80;17.40;;;;;;2251702;61;20422;-66
2023/06/14 04:27:54;0.00;0.00;0.62;0.00;0.00;0.62;2.70;2.13;;;30.80;17.40;;;;;;2252147;61;20984;-65
2023/06/14 04:30:40;0.00;0.00;0.62;0.00;0.00;0.62;2.63;1.90;;;30.80;17.40;;;;;;2252045;61;20417;-66
2023/06/14 04:33:26;0.00;0.00;0.62;0.00;0.00;0.62;2.77;1.80;;;30.80;17.40;;;;;;2251687;61;20386;-65
2023/06/14 04:36:13;0.00;0.00;0.62;0.00;0.00;0.62;2.93;2.27;;;30.80;17.40;;;;;;2252044;61;20908;-65
2023/06/14 04:38:59;0.00;0.00;0.62;0.00;0.00;0.62;2.13;1.60;;;30.80;17.50;;;;;;2251849;61;20509;-66
2023/06/14 04:45:03;0.00;0.00;0.62;0.00;0.00;0.62;2.30;2.10;;;30.80;17.50;;;;;;2260216;61;20446;-64
2023/06/14 04:47:50;0.00;0.00;0.62;0.00;0.00;0.62;2.00;1.70;;;30.80;17.50;;;;;;2256123;61;20587;-64
2023/06/14 04:50:35;0.00;0.00;0.62;0.00;0.00;0.62;3.37;1.90;;;30.80;17.50;;;;;;2256027;61;20401;-64
2023/06/14 04:53:22;0.00;0.00;0.62;0.00;0.00;0.62;2.33;2.03;;;30.80;17.50;;;;;;2255040;61;20452;-64
2023/06/14 04:56:08;0.00;0.00;0.62;0.00;0.00;0.62;1.77;1.57;;;30.80;17.50;;;;;;2256232;61;20390;-64
2023/06/14 04:58:53;0.00;0.00;0.62;0.00;0.00;0.62;2.63;2.27;;;30.80;17.50;;;;;;2259106;61;20369;-64
2023/06/14 05:01:40;0.00;0.00;0.62;0.00;0.00;0.62;2.30;1.83;;;30.80;17.60;;;;;;2258389;61;20382;-66
2023/06/14 05:04:26;0.00;0.00;0.62;0.00;0.00;0.62;2.20;1.80;;;30.80;17.60;;;;;;2255760;61;20950;-67
2023/06/14 05:07:12;0.00;0.00;0.62;0.00;0.00;0.62;2.37;2.10;;;30.80;17.60;;;;;;2258877;61;20370;-67
2023/06/14 05:09:56;0.00;0.00;0.62;0.00;0.00;0.62;2.37;1.90;;;30.80;17.60;;;;;;2255644;61;20440;-66
2023/06/14 05:12:43;0.00;0.00;0.62;0.00;0.00;0.62;2.20;1.93;;;30.80;17.60;;;;;;2255552;61;20774;-67
2023/06/14 05:15:28;0.00;0.00;0.62;0.00;0.00;0.62;2.20;1.80;;;30.80;17.70;;;;;;2255542;61;20908;-66
2023/06/14 05:18:15;0.00;0.00;0.62;0.00;0.00;0.62;1.90;1.70;;;30.80;17.60;;;;;;2259264;61;20388;-67
2023/06/14 05:21:00;0.00;0.00;0.62;0.00;0.00;0.62;2.57;2.00;;;30.80;17.60;;;;;;2255432;61;20386;-67
2023/06/14 05:23:45;0.00;0.00;0.62;0.00;0.00;0.62;4.47;2.03;;;30.80;17.70;;;;;;2258314;61;20813;-67
2023/06/14 05:26:30;0.00;0.00;0.62;0.00;0.00;0.62;3.50;1.83;;;30.80;17.70;;;;;;2258886;61;20964;-66
2023/06/14 05:29:15;0.00;0.00;0.62;0.00;0.00;0.62;2.10;1.70;;;30.70;17.70;;;;;;2259066;61;20798;-66
2023/06/14 05:32:00;0.00;0.00;0.62;0.00;0.00;0.62;1.97;1.67;;;30.80;17.70;;;;;;2258349;61;20931;-65
2023/06/14 05:34:46;0.00;0.00;0.62;0.00;0.00;0.62;1.90;1.70;;;30.70;17.70;;;;;;2259393;61;20368;-66
2023/06/14 05:37:31;0.00;0.00;0.62;0.00;0.00;0.62;3.80;1.60;;;30.70;17.70;;;;;;2258707;61;20424;-66
2023/06/14 05:40:17;0.00;0.00;0.62;0.00;0.00;0.62;2.37;1.80;;;30.70;17.70;;;;;;2259449;61;20416;-66
2023/06/14 05:43:02;0.00;0.00;0.62;0.00;0.00;0.62;2.60;1.67;;;30.70;17.70;;;;;;2258135;61;20489;-66
2023/06/14 05:45:47;0.00;0.00;0.62;0.00;0.00;0.62;2.90;1.77;;;30.70;17.70;;;;;;2259052;61;20370;-66
2023/06/14 05:48:32;0.00;0.00;0.62;0.00;0.00;0.62;3.67;2.03;;;30.70;17.80;;;;;;2259087;61;20784;-69
2023/06/14 05:51:19;0.00;0.00;0.62;0.00;0.00;0.62;3.00;2.20;;;30.70;17.80;;;;;;2258731;61;20525;-66
2023/06/14 05:54:03;0.00;0.00;0.62;0.00;0.00;0.62;2.57;2.03;;;30.70;17.80;;;;;;2258453;61;20390;-65
2023/06/14 05:56:48;0.00;0.00;0.62;0.00;0.00;0.62;2.33;1.70;;;30.70;17.80;;;;;;2258980;61;20408;-66
2023/06/14 05:59:34;0.00;0.00;0.62;0.00;0.00;0.62;2.20;1.70;;;30.70;17.80;;;;;;2255771;61;20962;-66
2023/06/14 06:02:19;0.00;0.00;0.62;0.00;0.00;0.62;1.93;1.70;;;30.70;17.80;;;;;;2258659;61;21041;-66
2023/06/14 06:05:05;0.00;0.00;0.62;0.00;0.00;0.62;1.90;1.50;;;30.70;17.80;;;;;;2258596;61;20546;-66
2023/06/14 06:07:52;0.00;0.00;0.62;0.00;0.00;0.62;2.03;1.37;;;30.70;17.80;;;;;;2259033;61;20768;-66
2023/06/14 06:10:37;0.00;0.00;0.62;0.00;0.00;0.62;2.67;1.50;;;30.70;17.80;;;;;;2258816;61;20808;-66
2023/06/14 06:13:21;0.00;0.00;0.62;0.00;0.00;0.62;1.90;1.70;;;30.70;17.80;;;;;;2258324;61;20361;-66
2023/06/14 06:16:06;0.00;0.00;0.62;0.00;0.00;0.62;2.30;1.80;;;30.70;17.90;;;;;;2258787;61;20904;-74
2023/06/14 06:18:52;0.00;0.00;0.62;0.00;0.00;0.62;3.10;1.83;;;30.70;17.90;;;;;;2258909;61;20357;-66
2023/06/14 06:21:36;0.00;0.00;0.62;0.00;0.00;0.62;2.50;1.80;;;30.70;17.90;;;;;;2258218;61;20436;-66
2023/06/14 06:24:23;0.00;0.00;0.62;0.00;0.00;0.62;2.10;1.60;;;30.70;17.90;;;;;;2258503;61;20370;-66
2023/06/14 06:27:08;0.00;0.00;0.62;0.00;0.00;0.62;5.00;1.80;;;30.70;17.90;;;;;;2259021;61;20382;-66
2023/06/14 06:29:52;0.00;0.00;0.62;0.00;0.00;0.62;2.63;1.50;;;30.70;17.90;;;;;;2258663;61;20382;-66
2023/06/14 06:32:37;0.00;0.00;0.62;0.00;0.00;0.62;2.20;1.73;;;30.70;17.90;;;;;;2258620;61;20409;-65
2023/06/14 06:35:22;0.00;0.00;0.62;0.00;0.00;0.62;2.10;1.60;;;30.70;17.90;;;;;;2258850;61;20486;-66
2023/06/14 06:38:08;0.00;0.00;0.62;0.00;0.00;0.62;1.70;1.43;;;30.70;17.90;;;;;;2258366;61;20369;-66
2023/06/14 06:40:54;0.00;0.00;0.62;0.00;0.00;0.62;2.73;1.90;;;30.70;17.90;;;;;;2259006;61;20381;-66
2023/06/14 06:43:39;0.00;0.00;0.62;0.00;0.00;0.62;2.57;1.70;;;30.70;18.00;;;;;;2258435;61;20370;-66
2023/06/14 06:46:27;0.00;0.00;0.62;0.00;0.00;0.62;1.93;1.33;;;30.70;18.00;;;;;;2255239;61;20381;-66
2023/06/14 06:49:11;0.00;0.00;0.62;0.00;0.00;0.62;3.07;2.00;;;30.70;18.60;;;;;;2258926;61;20456;-66
2023/06/14 06:52:02;0.00;0.00;0.62;0.00;0.00;0.62;3.50;1.70;;;30.70;18.00;;;;;;2257829;61;20389;-66
2023/06/14 06:54:49;0.00;0.00;0.62;0.00;0.00;0.62;2.63;1.93;;;30.70;18.00;;;;;;2258920;61;20385;-66
2023/06/14 06:57:35;0.00;0.00;0.62;0.00;0.00;0.62;1.80;1.40;;;30.70;18.00;;;;;;2258688;61;20828;-66
2023/06/14 07:00:20;0.00;0.00;0.62;0.00;0.00;0.62;2.40;1.67;;;30.70;18.00;;;;;;2258867;61;20833;-67
2023/06/14 07:03:05;0.00;0.00;0.62;0.00;0.00;0.62;2.30;1.70;;;30.70;18.00;;;;;;2258440;61;20938;-66
2023/06/14 07:05:50;0.00;0.00;0.62;0.00;0.00;0.62;2.20;1.60;;;30.70;18.00;;;;;;2258621;61;20365;-66
2023/06/14 07:08:35;0.00;0.00;0.62;0.00;0.00;0.62;2.60;1.90;;;30.70;18.00;;;;;;2258222;61;20381;-66
2023/06/14 07:11:20;0.00;0.00;0.62;0.00;0.00;0.62;3.40;1.70;;;30.70;18.10;;;;;;2258990;61;20998;-66
2023/06/14 07:14:07;0.00;0.00;0.62;0.00;0.00;0.62;2.17;1.20;;;30.70;18.10;;;;;;2258014;61;20374;-66
2023/06/14 07:16:51;0.00;0.00;0.62;0.00;0.00;0.62;3.27;1.50;;;30.70;18.10;;;;;;2259080;61;20382;-66
2023/06/14 07:19:36;0.00;0.00;0.62;0.00;0.00;0.62;1.83;1.53;;;30.70;18.10;;;;;;2255260;61;20358;-66
2023/06/14 07:22:21;0.00;0.00;0.62;0.00;0.00;0.62;2.10;1.60;;;30.70;18.10;;;;;;2258249;61;20433;-66
2023/06/14 07:25:06;0.00;0.00;0.62;0.00;0.00;0.62;1.83;1.47;;;30.70;18.10;;;;;;2258506;61;20442;-66
2023/06/14 07:27:52;0.00;0.00;0.62;0.00;0.00;0.62;2.30;1.60;;;30.70;18.10;;;;;;2258183;61;20369;-66
2023/06/14 07:30:38;0.00;0.00;0.62;0.00;0.00;0.62;2.30;1.70;;;30.70;18.10;;;;;;2258158;61;20779;-66
2023/06/14 07:33:23;0.00;0.00;0.62;0.00;0.00;0.62;2.00;1.60;;;30.70;18.10;;;;;;2258346;61;20494;-66
2023/06/14 07:36:08;0.00;0.00;0.62;0.00;0.00;0.62;1.93;1.47;;;30.70;18.10;;;;;;2258038;61;20365;-66
2023/06/14 07:38:53;0.00;0.00;0.62;0.00;0.00;0.62;2.00;1.60;;;30.70;18.10;;;;;;2255611;61;20370;-66
2023/06/14 07:41:39;0.00;0.00;0.62;0.00;0.00;0.62;2.13;1.60;;;30.70;18.10;;;;;;2257695;61;20689;-66
2023/06/14 07:44:23;0.00;0.00;0.62;0.00;0.00;0.62;1.80;1.50;;;30.70;18.10;;;;;;2258293;61;20378;-66
2023/06/14 07:47:09;0.00;0.00;0.62;0.00;0.00;0.62;1.97;1.67;;;30.70;18.10;;;;;;2258334;61;20373;-66
2023/06/14 07:49:54;0.00;0.00;0.62;0.00;0.00;0.62;2.07;1.40;;;30.70;18.10;;;;;;2258241;61;20374;-67
2023/06/14 07:52:39;0.00;0.00;0.62;0.00;0.00;0.62;2.57;1.60;;;30.70;18.10;;;;;;2257501;61;20855;-67
2023/06/14 07:55:25;0.00;0.00;0.62;0.00;0.00;0.62;2.13;1.40;;;30.70;18.10;;;;;;2258752;61;20785;-67
2023/06/14 07:58:10;0.00;0.00;0.62;0.00;0.00;0.62;1.73;1.43;;;30.70;18.10;;;;;;2258251;61;20361;-66
2023/06/14 08:00:55;0.00;0.00;0.62;0.00;0.00;0.62;2.30;1.73;;;30.70;18.10;;;;;;2258450;61;20381;-66
2023/06/14 08:03:42;0.00;0.00;0.62;0.00;0.00;0.62;2.20;1.53;;;30.70;18.10;;;;;;2257896;61;21004;-66
2023/06/14 08:06:27;0.00;0.00;0.62;0.00;0.00;0.62;1.80;1.50;;;30.70;18.10;;;;;;2258095;61;20366;-66
2023/06/14 08:09:13;0.00;0.00;0.62;0.00;0.00;0.62;1.90;1.60;;;30.70;18.10;;;;;;2258357;61;20357;-66
2023/06/14 08:11:57;0.00;0.00;0.62;0.00;0.00;0.62;2.40;1.67;;;30.70;18.10;;;;;;2257812;61;20935;-66
2023/06/14 08:14:43;0.00;0.00;0.62;0.00;0.00;0.62;2.43;1.53;;;30.70;18.20;;;;;;2258511;61;20358;-66
2023/06/14 08:17:28;0.00;0.00;0.62;0.00;0.00;0.62;1.60;1.33;;;30.70;18.20;;;;;;2258516;61;20366;-66
2023/06/14 08:20:16;0.00;0.00;0.62;0.00;0.00;0.62;1.90;1.57;;;30.70;18.10;;;;;;2258663;61;20456;-66
2023/06/14 08:23:02;0.00;0.00;0.62;0.00;0.00;0.62;2.17;1.63;;;30.70;18.10;;;;;;2252236;61;20362;-66
2023/06/14 08:25:47;0.00;0.00;0.62;0.00;0.00;0.62;1.90;1.50;;;30.70;18.10;;;;;;2255163;61;20366;-71
2023/06/14 08:28:31;0.00;0.00;0.62;0.00;0.00;0.62;1.70;1.40;;;30.70;18.10;;;;;;2258195;61;20764;-66
2023/06/14 08:31:16;0.00;0.00;0.62;0.00;0.00;0.62;2.10;1.80;;;30.70;18.10;;;;;;2258103;61;20401;-66
2023/06/14 08:34:01;0.00;0.00;0.62;0.00;0.00;0.62;2.10;1.90;;;30.60;18.10;;;;;;2258293;61;20366;-66
2023/06/14 08:36:48;0.00;0.00;0.62;0.00;0.00;0.62;1.93;1.50;;;30.60;18.10;;;;;;2255094;61;20357;-66
2023/06/14 08:39:32;0.00;0.00;0.62;0.00;0.00;0.62;2.10;1.90;;;30.60;18.10;;;;;;2258431;61;20385;-66
2023/06/14 08:42:21;0.00;0.00;0.62;0.00;0.00;0.62;1.63;1.30;;;30.70;18.10;;;;;;2258067;61;20385;-66
2023/06/14 08:45:07;0.00;0.00;0.62;0.00;0.00;0.62;2.40;1.47;;;30.60;18.10;;;;;;2258723;61;20914;-66
2023/06/14 08:47:57;0.00;0.00;0.62;0.00;0.00;0.62;1.90;1.60;;;30.60;18.10;;;;;;2258238;61;20385;-66
2023/06/14 08:50:42;0.00;0.00;0.62;0.00;0.00;0.62;2.10;1.90;;;30.60;18.10;;;;;;2258189;61;20413;-66
2023/06/14 08:53:31;0.00;0.00;0.62;0.00;0.00;0.62;2.30;1.83;;;30.60;18.10;;;;;;2258246;61;20366;-66
2023/06/14 08:56:16;0.00;0.00;0.62;0.00;0.00;0.62;2.00;1.53;;;30.60;18.10;;;;;;2258228;61;20373;-65
2023/06/14 08:59:06;0.00;0.00;0.62;0.00;0.00;0.62;2.43;1.97;;;30.60;18.10;;;;;;2258174;61;20454;-66
2023/06/14 09:01:52;0.00;0.00;0.62;0.00;0.00;0.62;2.20;1.70;;;30.60;18.10;;;;;;2258018;61;20405;-66
2023/06/14 09:04:37;0.00;0.00;0.62;0.00;0.00;0.62;2.30;1.90;;;30.60;18.10;;;;;;2257497;61;20405;-66
2023/06/14 09:07:21;0.00;0.00;0.62;0.00;0.00;0.62;1.90;1.60;;;30.60;18.10;;;;;;2259272;61;20373;-66
2023/06/14 09:10:11;0.00;0.00;0.62;0.00;0.00;0.62;1.73;1.53;;;30.60;18.10;;;;;;2258605;61;20822;-66
2023/06/14 09:12:56;0.00;0.00;0.62;0.00;0.00;0.62;2.03;1.80;;;30.60;18.10;;;;;;2258367;61;20587;-66
2023/06/14 09:15:40;0.00;0.00;0.62;0.00;0.00;0.62;1.53;1.23;;;30.60;18.20;;;;;;2258858;61;20401;-66
2023/06/14 09:18:35;0.00;0.00;0.62;0.00;0.00;0.62;3.90;1.83;;;30.60;18.20;;;;;;2255696;61;20908;-66
2023/06/14 09:21:21;0.00;0.00;0.62;0.00;0.00;0.62;1.70;1.37;;;30.60;18.10;;;;;;2258832;61;20428;-66
2023/06/14 09:24:13;0.00;0.00;0.62;0.00;0.00;0.62;1.90;1.70;;;30.60;18.10;;;;;;2259247;61;20668;-66
2023/06/14 09:26:58;0.00;0.00;0.62;0.00;0.00;0.62;2.10;1.50;;;30.60;18.20;;;;;;2258572;61;20358;-66
2023/06/14 09:29:43;0.00;0.00;0.62;0.00;0.00;0.62;2.47;1.90;;;30.60;18.20;;;;;;2258964;61;21007;-66
2023/06/14 09:32:28;0.00;0.00;0.62;0.00;0.00;0.62;1.70;1.60;;;30.60;18.10;;;;;;2258224;61;20927;-66
2023/06/14 09:35:17;0.00;0.00;0.62;0.00;0.00;0.62;1.90;1.60;;;30.60;18.10;;;;;;2255609;61;20366;-66
2023/06/14 09:38:02;0.00;0.00;0.62;0.00;0.00;0.62;2.57;1.53;;;30.60;18.10;;;;;;2259234;61;20369;-66
2023/06/14 09:40:47;0.00;0.00;0.62;0.00;0.00;0.62;2.00;1.53;;;30.60;18.10;;;;;;2258633;61;20963;-66
2023/06/14 09:43:34;0.00;0.00;0.62;0.00;0.00;0.62;2.10;1.63;;;30.60;18.20;;;;;;2258335;61;20405;-66
2023/06/14 09:46:19;0.00;0.00;0.62;0.00;0.00;0.62;1.93;1.50;;;30.60;18.20;;;;;;2258996;61;20401;-66
2023/06/14 09:49:05;0.00;0.00;0.62;0.00;0.00;0.62;2.00;1.70;;;30.60;18.20;;;;;;2461196;53;20936;-66
2023/06/14 09:51:55;0.00;0.00;0.62;0.00;0.00;0.62;1.73;1.37;;;30.60;18.20;;;;;;2255482;61;21308;-66
2023/06/14 09:54:43;0.00;0.00;0.62;0.00;0.00;0.62;2.23;1.43;;;30.60;18.20;;;;;;2258622;61;20378;-66
2023/06/14 09:57:33;0.00;0.00;0.62;0.00;0.00;0.62;2.77;1.60;;;30.60;18.20;;;;;;2255375;61;20369;-66
2023/06/14 10:00:21;0.00;0.00;0.62;0.00;0.00;0.62;1.83;1.63;;;30.60;18.20;;;;;;2259009;61;20385;-66
2023/06/14 10:03:12;0.00;0.00;0.62;0.00;0.00;0.62;2.00;1.40;;;30.60;18.20;;;;;;2258505;61;20923;-66
2023/06/14 10:06:02;0.00;0.00;0.62;0.00;0.00;0.62;1.77;1.40;;;30.60;18.20;;;;;;2258536;61;20467;-66
2023/06/14 10:08:49;0.00;0.00;0.62;0.00;0.00;0.62;1.70;1.30;;;30.60;18.20;;;;;;2255873;61;20361;-66
2023/06/14 10:11:35;0.00;0.00;0.62;0.00;0.00;0.62;2.30;1.60;;;30.60;18.20;;;;;;2258120;61;20426;-65
2023/06/14 10:14:20;0.00;0.00;0.62;0.00;0.00;0.62;1.90;1.50;;;30.60;18.30;;;;;;2255473;61;20398;-66
2023/06/14 10:17:12;0.00;0.00;0.62;0.00;0.00;0.62;2.23;1.97;;;30.60;18.30;;;;;;2258749;61;20404;-66
2023/06/14 10:20:14;0.00;0.00;0.62;0.00;0.00;0.62;1.83;1.60;;;30.60;18.30;;;;;;2258825;61;20366;-66
2023/06/14 10:23:06;0.00;0.00;0.62;0.00;0.00;0.62;1.70;1.40;;;30.60;18.30;;;;;;2255546;61;20377;-66
2023/06/14 10:25:56;0.00;0.00;0.62;0.00;0.00;0.62;2.10;1.37;;;30.60;18.30;;;;;;2258709;61;20362;-66
2023/06/14 10:28:40;0.00;0.00;0.62;0.00;0.00;0.62;2.83;2.07;;;30.60;18.30;;;;;;2258611;61;20378;-66
2023/06/14 10:31:42;0.00;0.00;0.62;0.00;0.00;0.62;1.87;1.50;;;30.60;18.30;;;;;;2255309;61;20490;-66
2023/06/14 10:34:30;0.00;0.00;0.62;0.00;0.00;0.62;2.07;1.63;;;30.60;18.30;;;;;;2258569;61;20358;-66
2023/06/14 10:37:16;0.00;0.00;0.62;0.00;0.00;0.62;1.90;1.53;;;30.60;18.30;;;;;;2258923;61;20901;-66
2023/06/14 10:40:01;0.00;0.00;0.62;0.00;0.00;0.62;2.10;1.70;;;30.60;18.30;;;;;;2258813;61;20365;-66
2023/06/14 10:42:52;0.00;0.00;0.62;0.00;0.00;0.62;2.80;1.93;;;30.60;18.30;;;;;;2258276;61;20382;-66
2023/06/14 10:45:37;0.00;0.00;0.62;0.00;0.00;0.62;2.30;2.00;;;30.60;18.30;;;;;;2258656;61;20767;-66
2023/06/14 10:48:30;0.00;0.00;0.62;0.00;0.00;0.62;2.23;1.87;;;30.60;18.30;;;;;;2250622;61;20894;-66
2023/06/14 10:51:20;0.00;0.00;0.62;0.00;0.00;0.62;1.90;1.70;;;30.60;18.30;;;;;;2258788;61;20405;-66
2023/06/14 10:54:13;0.00;0.00;0.62;0.00;0.00;0.62;1.70;1.50;;;30.60;18.40;;;;;;2255235;61;20374;-66
2023/06/14 10:56:59;0.00;0.00;0.62;0.00;0.00;0.62;2.47;1.80;;;30.60;18.40;;;;;;2258489;61;20409;-66
2023/06/14 10:59:43;0.00;0.00;0.62;0.00;0.00;0.62;1.93;1.73;;;30.70;18.40;;;;;;2258836;61;20450;-67